Douglas, Isle of Man
Current Conditions -  °F | °C
As of 5:50 PM on Thursday 27 Nov 2014 (Local Time) from EGNS Reporting Station
Broken Clouds Broken Clouds  
Wind Chill: 43°   Ceiling: 4000
Heat Index: 48°   Visibility: 6mi
Dew Point: 39°   Wind: 13mph
Humidity: 71%   Direction: 140°SE
Pressure: 29.5"   Gusts: NA
Location:  54.15°N, 4.48°W
Report Text: EGNS 271650Z 14011KT 110V170 9999 FEW020 SCT030 BKN040 09/04 Q0999 NOSIG
Loading
Personal Weather Stations






























Interactive Weather Map New forecast layout! Learn more

10-Day Weather Forecast

Advertisements
Track Severe Weather on mobile